sensor_id;sensor_type;location;lat;lon;timestamp;pressure;altitude;pressure_sealevel;temperature;humidity
60061;BME280;45933;51.336;12.612;2023-01-16T00:00:13;98558.69;;;5.34;60.42
60061;BME280;45933;51.336;12.612;2023-01-16T00:02:38;98556.94;;;5.39;60.09
60061;BME280;45933;51.336;12.612;2023-01-16T00:05:04;98548.53;;;5.11;61.02
60061;BME280;45933;51.336;12.612;2023-01-16T00:07:29;98538.81;;;5.37;59.69
60061;BME280;45933;51.336;12.612;2023-01-16T00:09:55;98543.22;;;5.31;60.30
60061;BME280;45933;51.336;12.612;2023-01-16T00:12:20;98544.94;;;5.27;60.16
60061;BME280;45933;51.336;12.612;2023-01-16T00:14:45;98547.50;;;5.33;59.80
60061;BME280;45933;51.336;12.612;2023-01-16T00:17:10;98551.00;;;5.28;59.95
60061;BME280;45933;51.336;12.612;2023-01-16T00:19:36;98552.72;;;5.29;59.66
60061;BME280;45933;51.336;12.612;2023-01-16T00:22:01;98554.47;;;5.20;60.57
60061;BME280;45933;51.336;12.612;2023-01-16T00:24:26;98557.91;;;5.24;60.16
60061;BME280;45933;51.336;12.612;2023-01-16T00:26:52;98551.00;;;5.24;60.25
60061;BME280;45933;51.336;12.612;2023-01-16T00:29:17;98563.91;;;5.26;60.11
60061;BME280;45933;51.336;12.612;2023-01-16T00:31:42;98543.28;;;5.21;60.22
60061;BME280;45933;51.336;12.612;2023-01-16T00:34:08;98538.09;;;5.24;60.21
60061;BME280;45933;51.336;12.612;2023-01-16T00:36:33;98538.09;;;5.24;60.08
60061;BME280;45933;51.336;12.612;2023-01-16T00:38:58;98545.00;;;5.24;59.77
60061;BME280;45933;51.336;12.612;2023-01-16T00:41:24;98538.16;;;5.18;60.20
60061;BME280;45933;51.336;12.612;2023-01-16T00:43:49;98541.53;;;5.25;59.92
60061;BME280;45933;51.336;12.612;2023-01-16T00:46:15;98532.97;;;5.20;60.14
60061;BME280;45933;51.336;12.612;2023-01-16T00:48:40;98531.25;;;5.19;60.08
60061;BME280;45933;51.336;12.612;2023-01-16T00:51:05;98539.84;;;5.22;59.85
60061;BME280;45933;51.336;12.612;2023-01-16T00:53:31;98534.69;;;5.22;59.59
60061;BME280;45933;51.336;12.612;2023-01-16T00:55:56;98520.91;;;5.22;59.94
60061;BME280;45933;51.336;12.612;2023-01-16T00:58:21;98518.25;;;5.27;59.42
60061;BME280;45933;51.336;12.612;2023-01-16T01:00:46;98522.56;;;5.26;59.52
60061;BME280;45933;51.336;12.612;2023-01-16T01:03:12;98522.59;;;5.28;59.40
60061;BME280;45933;51.336;12.612;2023-01-16T01:05:37;98515.66;;;5.30;59.27
60061;BME280;45933;51.336;12.612;2023-01-16T01:08:03;98513.91;;;5.33;59.43
60061;BME280;45933;51.336;12.612;2023-01-16T01:10:29;98513.97;;;5.29;59.50
60061;BME280;45933;51.336;12.612;2023-01-16T01:12:54;98516.50;;;5.32;59.35
60061;BME280;45933;51.336;12.612;2023-01-16T01:15:20;98515.56;;;5.37;59.11
60061;BME280;45933;51.336;12.612;2023-01-16T01:17:46;98512.13;;;5.40;59.15
60061;BME280;45933;51.336;12.612;2023-01-16T01:20:11;98500.88;;;5.42;59.01
60061;BME280;45933;51.336;12.612;2023-01-16T01:22:36;98503.50;;;5.41;59.02
60061;BME280;45933;51.336;12.612;2023-01-16T01:25:02;98492.31;;;5.39;59.05
60061;BME280;45933;51.336;12.612;2023-01-16T01:27:27;98493.09;;;5.47;58.99
60061;BME280;45933;51.336;12.612;2023-01-16T01:29:53;98488.75;;;5.50;58.88
60061;BME280;45933;51.336;12.612;2023-01-16T01:32:18;98485.22;;;5.58;58.65
60061;BME280;45933;51.336;12.612;2023-01-16T01:34:43;98481.75;;;5.59;58.70
60061;BME280;45933;51.336;12.612;2023-01-16T01:37:08;98480.94;;;5.57;58.64
60061;BME280;45933;51.336;12.612;2023-01-16T01:39:34;98468.94;;;5.51;58.48
60061;BME280;45933;51.336;12.612;2023-01-16T01:41:59;98467.13;;;5.59;58.53
60061;BME280;45933;51.336;12.612;2023-01-16T01:44:53;98462.75;;;5.64;58.08
60061;BME280;45933;51.336;12.612;2023-01-16T01:47:23;98459.44;;;5.51;58.34
60061;BME280;45933;51.336;12.612;2023-01-16T01:49:52;98450.75;;;5.60;58.01
60061;BME280;45933;51.336;12.612;2023-01-16T01:52:19;98459.50;;;5.47;58.05
60061;BME280;45933;51.336;12.612;2023-01-16T01:54:50;98452.56;;;5.50;58.10
60061;BME280;45933;51.336;12.612;2023-01-16T01:57:22;98449.09;;;5.51;58.22
60061;BME280;45933;51.336;12.612;2023-01-16T01:59:55;98453.44;;;5.49;58.15
60061;BME280;45933;51.336;12.612;2023-01-16T02:02:24;98453.44;;;5.48;58.05
60061;BME280;45933;51.336;12.612;2023-01-16T02:04:52;98438.91;;;5.39;58.32
60061;BME280;45933;51.336;12.612;2023-01-16T02:07:22;98437.25;;;5.34;58.14
60061;BME280;45933;51.336;12.612;2023-01-16T02:09:51;98428.56;;;5.38;58.02
60061;BME280;45933;51.336;12.612;2023-01-16T02:12:19;98432.03;;;5.37;57.95
60061;BME280;45933;51.336;12.612;2023-01-16T02:14:46;98433.78;;;5.36;57.95
60061;BME280;45933;51.336;12.612;2023-01-16T02:17:15;98421.81;;;5.28;58.08
60061;BME280;45933;51.336;12.612;2023-01-16T02:22:57;98414.03;;;5.31;58.14
60061;BME280;45933;51.336;12.612;2023-01-16T02:26:03;98410.63;;;5.29;58.13
60061;BME280;45933;51.336;12.612;2023-01-16T02:34:24;98397.97;;;5.03;58.84
60061;BME280;45933;51.336;12.612;2023-01-16T02:37:14;98399.59;;;5.13;58.17
60061;BME280;45933;51.336;12.612;2023-01-16T02:51:12;98383.38;;;4.95;59.03
60061;BME280;45933;51.336;12.612;2023-01-16T02:54:02;98369.63;;;4.95;58.51
60061;BME280;45933;51.336;12.612;2023-01-16T02:56:39;98366.31;;;4.82;59.20
60061;BME280;45933;51.336;12.612;2023-01-16T02:59:09;98369.88;;;4.69;59.61
60061;BME280;45933;51.336;12.612;2023-01-16T03:01:36;98356.97;;;4.69;59.27
60061;BME280;45933;51.336;12.612;2023-01-16T03:04:33;98349.19;;;4.73;58.89
60061;BME280;45933;51.336;12.612;2023-01-16T03:06:59;98338.09;;;4.67;59.47
60061;BME280;45933;51.336;12.612;2023-01-16T03:09:58;98336.25;;;4.78;58.86
60061;BME280;45933;51.336;12.612;2023-01-16T03:12:55;98327.72;;;4.68;59.43
60061;BME280;45933;51.336;12.612;2023-01-16T03:15:34;98316.56;;;4.68;59.26
60061;BME280;45933;51.336;12.612;2023-01-16T03:18:32;98313.09;;;4.70;58.97
60061;BME280;45933;51.336;12.612;2023-01-16T03:21:08;98305.44;;;4.63;59.64
60061;BME280;45933;51.336;12.612;2023-01-16T03:24:12;98312.38;;;4.59;59.85
60061;BME280;45933;51.336;12.612;2023-01-16T03:26:45;98300.47;;;4.43;60.19
60061;BME280;45933;51.336;12.612;2023-01-16T03:29:29;98294.34;;;4.53;60.03
60061;BME280;45933;51.336;12.612;2023-01-16T03:32:08;98289.19;;;4.52;59.95
60061;BME280;45933;51.336;12.612;2023-01-16T03:34:59;98292.63;;;4.55;59.88
60061;BME280;45933;51.336;12.612;2023-01-16T03:37:33;98292.66;;;4.51;60.07
60061;BME280;45933;51.336;12.612;2023-01-16T03:40:10;98285.75;;;4.53;59.96
60061;BME280;45933;51.336;12.612;2023-01-16T03:42:47;98290.03;;;4.55;59.68
60061;BME280;45933;51.336;12.612;2023-01-16T03:45:31;98276.31;;;4.50;59.97
60061;BME280;45933;51.336;12.612;2023-01-16T03:50:36;98274.69;;;4.43;60.17
60061;BME280;45933;51.336;12.612;2023-01-16T03:53:08;98264.25;;;4.52;59.75
60061;BME280;45933;51.336;12.612;2023-01-16T03:55:41;98262.53;;;4.51;60.19
60061;BME280;45933;51.336;12.612;2023-01-16T03:58:14;98259.16;;;4.46;60.13
60061;BME280;45933;51.336;12.612;2023-01-16T04:00:58;98272.03;;;4.47;60.27
60061;BME280;45933;51.336;12.612;2023-01-16T04:03:38;98271.19;;;4.49;60.08
60061;BME280;45933;51.336;12.612;2023-01-16T04:06:19;98265.13;;;4.48;60.15
60061;BME280;45933;51.336;12.612;2023-01-16T04:08:47;98260.88;;;4.45;59.99
60061;BME280;45933;51.336;12.612;2023-01-16T04:11:17;98253.16;;;4.42;60.02
60061;BME280;45933;51.336;12.612;2023-01-16T04:13:46;98242.84;;;4.44;60.00
60061;BME280;45933;51.336;12.612;2023-01-16T04:16:14;98247.19;;;4.40;59.91
60061;BME280;45933;51.336;12.612;2023-01-16T04:18:43;98226.59;;;4.34;60.28
60061;BME280;45933;51.336;12.612;2023-01-16T04:21:09;98234.31;;;4.36;60.12
60061;BME280;45933;51.336;12.612;2023-01-16T04:23:35;98226.63;;;4.31;60.44
60061;BME280;45933;51.336;12.612;2023-01-16T04:26:00;98229.16;;;4.36;60.07
60061;BME280;45933;51.336;12.612;2023-01-16T04:28:26;98219.75;;;4.32;60.36
60061;BME280;45933;51.336;12.612;2023-01-16T04:30:51;98221.47;;;4.33;60.24
60061;BME280;45933;51.336;12.612;2023-01-16T04:33:16;98214.59;;;4.30;60.25
60061;BME280;45933;51.336;12.612;2023-01-16T04:35:42;98212.97;;;4.20;60.81
60061;BME280;45933;51.336;12.612;2023-01-16T04:38:07;98206.94;;;4.21;61.05
60061;BME280;45933;51.336;12.612;2023-01-16T04:40:32;98206.09;;;4.22;60.81
60061;BME280;45933;51.336;12.612;2023-01-16T04:42:58;98194.09;;;4.19;60.86
60061;BME280;45933;51.336;12.612;2023-01-16T04:45:23;98193.25;;;4.16;60.83
60061;BME280;45933;51.336;12.612;2023-01-16T04:47:50;98186.31;;;4.21;60.70
60061;BME280;45933;51.336;12.612;2023-01-16T04:50:16;98181.22;;;4.16;60.82
60061;BME280;45933;51.336;12.612;2023-01-16T04:52:42;98170.84;;;4.23;60.47
60061;BME280;45933;51.336;12.612;2023-01-16T04:55:08;98157.22;;;4.11;61.19
60061;BME280;45933;51.336;12.612;2023-01-16T04:57:34;98157.16;;;4.17;60.81
60061;BME280;45933;51.336;12.612;2023-01-16T04:59:59;98155.41;;;4.16;60.92
60061;BME280;45933;51.336;12.612;2023-01-16T05:02:25;98156.28;;;4.18;60.73
60061;BME280;45933;51.336;12.612;2023-01-16T05:04:50;98148.50;;;4.22;60.71
60061;BME280;45933;51.336;12.612;2023-01-16T05:07:15;98146.03;;;4.12;61.10
60061;BME280;45933;51.336;12.612;2023-01-16T05:09:40;98148.56;;;4.17;61.01
60061;BME280;45933;51.336;12.612;2023-01-16T05:12:06;98147.81;;;4.04;61.46
60061;BME280;45933;51.336;12.612;2023-01-16T05:14:31;98149.38;;;4.19;60.97
60061;BME280;45933;51.336;12.612;2023-01-16T05:16:59;98150.25;;;4.19;61.04
60061;BME280;45933;51.336;12.612;2023-01-16T05:19:25;98139.94;;;4.18;60.94
60061;BME280;45933;51.336;12.612;2023-01-16T05:21:50;98142.59;;;4.12;61.04
60061;BME280;45933;51.336;12.612;2023-01-16T05:24:15;98131.44;;;4.11;61.41
60061;BME280;45933;51.336;12.612;2023-01-16T05:26:41;98120.22;;;4.14;60.95
60061;BME280;45933;51.336;12.612;2023-01-16T05:29:06;98115.06;;;4.14;60.88
60061;BME280;45933;51.336;12.612;2023-01-16T05:31:31;98124.66;;;4.01;61.34
60061;BME280;45933;51.336;12.612;2023-01-16T05:33:57;98109.06;;;4.10;61.24
60061;BME280;45933;51.336;12.612;2023-01-16T05:36:22;98103.84;;;4.18;60.92
60061;BME280;45933;51.336;12.612;2023-01-16T05:38:47;98108.22;;;4.11;61.15
60061;BME280;45933;51.336;12.612;2023-01-16T05:41:13;98089.28;;;4.14;60.68
60061;BME280;45933;51.336;12.612;2023-01-16T05:43:38;98081.50;;;4.18;60.65
60061;BME280;45933;51.336;12.612;2023-01-16T05:46:03;98072.06;;;4.17;60.63
60061;BME280;45933;51.336;12.612;2023-01-16T05:48:29;98074.59;;;4.22;60.59
60061;BME280;45933;51.336;12.612;2023-01-16T05:50:56;98073.53;;;4.35;60.14
60061;BME280;45933;51.336;12.612;2023-01-16T05:53:21;98073.72;;;4.20;60.44
60061;BME280;45933;51.336;12.612;2023-01-16T05:55:47;98081.41;;;4.25;60.70
60061;BME280;45933;51.336;12.612;2023-01-16T05:58:14;98073.56;;;4.32;60.43
60061;BME280;45933;51.336;12.612;2023-01-16T06:00:41;98065.13;;;4.21;60.59
60061;BME280;45933;51.336;12.612;2023-01-16T06:03:07;98069.41;;;4.22;60.44
60061;BME280;45933;51.336;12.612;2023-01-16T06:05:33;98079.66;;;4.27;60.29
60061;BME280;45933;51.336;12.612;2023-01-16T06:07:58;98068.50;;;4.26;60.46
60061;BME280;45933;51.336;12.612;2023-01-16T06:10:25;98064.94;;;4.35;59.93
60061;BME280;45933;51.336;12.612;2023-01-16T06:12:50;98062.47;;;4.29;60.00
60061;BME280;45933;51.336;12.612;2023-01-16T06:15:16;98064.25;;;4.22;60.53
60061;BME280;45933;51.336;12.612;2023-01-16T06:17:41;98063.19;;;4.37;59.98
60061;BME280;45933;51.336;12.612;2023-01-16T06:20:08;98046.91;;;4.32;59.95
60061;BME280;45933;51.336;12.612;2023-01-16T06:22:33;98049.50;;;4.33;59.75
60061;BME280;45933;51.336;12.612;2023-01-16T06:24:58;98049.47;;;4.35;59.71
60061;BME280;45933;51.336;12.612;2023-01-16T06:27:24;98058.09;;;4.32;59.70
60061;BME280;45933;51.336;12.612;2023-01-16T06:29:49;98052.78;;;4.44;59.31
60061;BME280;45933;51.336;12.612;2023-01-16T06:32:14;98059.78;;;4.35;59.62
60061;BME280;45933;51.336;12.612;2023-01-16T06:34:42;98049.34;;;4.42;59.37
60061;BME280;45933;51.336;12.612;2023-01-16T06:37:07;98047.63;;;4.44;59.23
60061;BME280;45933;51.336;12.612;2023-01-16T06:39:32;98046.66;;;4.52;59.07
60061;BME280;45933;51.336;12.612;2023-01-16T06:41:58;98047.56;;;4.49;59.20
60061;BME280;45933;51.336;12.612;2023-01-16T06:44:23;98049.31;;;4.49;58.98
60061;BME280;45933;51.336;12.612;2023-01-16T06:46:48;98040.00;;;4.35;59.27
60061;BME280;45933;51.336;12.612;2023-01-16T06:49:13;98035.63;;;4.43;59.27
60061;BME280;45933;51.336;12.612;2023-01-16T06:51:39;98041.47;;;4.55;58.60
60061;BME280;45933;51.336;12.612;2023-01-16T06:54:04;98036.63;;;4.30;59.23
60061;BME280;45933;51.336;12.612;2023-01-16T06:56:30;98033.97;;;4.38;59.13
60061;BME280;45933;51.336;12.612;2023-01-16T06:58:55;98035.63;;;4.40;59.10
60061;BME280;45933;51.336;12.612;2023-01-16T07:01:20;98046.00;;;4.39;59.05
60061;BME280;45933;51.336;12.612;2023-01-16T07:03:46;98028.69;;;4.45;59.01
60061;BME280;45933;51.336;12.612;2023-01-16T07:06:11;98027.00;;;4.44;58.99
60061;BME280;45933;51.336;12.612;2023-01-16T07:08:40;98027.03;;;4.41;59.03
60061;BME280;45933;51.336;12.612;2023-01-16T07:11:05;98025.13;;;4.53;58.73
60061;BME280;45933;51.336;12.612;2023-01-16T07:13:30;98019.97;;;4.54;58.80
60061;BME280;45933;51.336;12.612;2023-01-16T07:15:56;98024.22;;;4.57;58.85
60061;BME280;45933;51.336;12.612;2023-01-16T07:18:40;98019.03;;;4.60;58.59
60061;BME280;45933;51.336;12.612;2023-01-16T07:21:26;98013.97;;;4.52;58.93
60061;BME280;45933;51.336;12.612;2023-01-16T07:24:15;98011.38;;;4.54;58.56
60061;BME280;45933;51.336;12.612;2023-01-16T07:26:44;97997.44;;;4.64;58.27
60061;BME280;45933;51.336;12.612;2023-01-16T07:29:12;98000.03;;;4.65;58.39
60061;BME280;45933;51.336;12.612;2023-01-16T07:31:38;97994.88;;;4.64;58.36
60061;BME280;45933;51.336;12.612;2023-01-16T07:34:03;97994.72;;;4.73;58.25
60061;BME280;45933;51.336;12.612;2023-01-16T07:36:29;97995.53;;;4.77;58.04
60061;BME280;45933;51.336;12.612;2023-01-16T07:38:54;97982.69;;;4.73;58.00
60061;BME280;45933;51.336;12.612;2023-01-16T07:41:19;97983.50;;;4.77;57.51
60061;BME280;45933;51.336;12.612;2023-01-16T07:43:44;97980.91;;;4.77;57.85
60061;BME280;45933;51.336;12.612;2023-01-16T07:46:10;97977.47;;;4.77;57.78
60061;BME280;45933;51.336;12.612;2023-01-16T07:48:35;97967.16;;;4.77;57.39
60061;BME280;45933;51.336;12.612;2023-01-16T07:51:00;97957.66;;;4.80;57.35
60061;BME280;45933;51.336;12.612;2023-01-16T07:53:28;97955.25;;;4.69;57.49
60061;BME280;45933;51.336;12.612;2023-01-16T07:55:58;97959.44;;;4.73;57.47
60061;BME280;45933;51.336;12.612;2023-01-16T07:58:25;97938.00;;;4.71;57.43
60061;BME280;45933;51.336;12.612;2023-01-16T08:00:54;97937.09;;;4.72;57.06
60061;BME280;45933;51.336;12.612;2023-01-16T08:03:21;97933.81;;;4.63;57.45
60061;BME280;45933;51.336;12.612;2023-01-16T08:05:47;97948.38;;;4.67;57.18
60061;BME280;45933;51.336;12.612;2023-01-16T08:08:13;97923.38;;;4.69;57.22
60061;BME280;45933;51.336;12.612;2023-01-16T08:10:39;97920.00;;;4.67;57.37
60061;BME280;45933;51.336;12.612;2023-01-16T08:13:05;97905.28;;;4.72;56.94
60061;BME280;45933;51.336;12.612;2023-01-16T08:15:30;97898.81;;;4.97;56.77
60061;BME280;45933;51.336;12.612;2023-01-16T08:17:55;97897.81;;;5.05;56.16
60061;BME280;45933;51.336;12.612;2023-01-16T08:20:21;97879.38;;;5.24;56.22
60061;BME280;45933;51.336;12.612;2023-01-16T08:22:49;97883.22;;;5.48;55.97
60061;BME280;45933;51.336;12.612;2023-01-16T08:25:21;97874.88;;;5.76;54.79
60061;BME280;45933;51.336;12.612;2023-01-16T08:27:47;97870.63;;;6.14;54.14
60061;BME280;45933;51.336;12.612;2023-01-16T08:30:14;97863.72;;;6.50;52.93
60061;BME280;45933;51.336;12.612;2023-01-16T08:32:39;97864.28;;;6.95;53.36
60061;BME280;45933;51.336;12.612;2023-01-16T08:35:05;97863.91;;;7.40;53.68
60061;BME280;45933;51.336;12.612;2023-01-16T08:37:32;97857.59;;;7.50;50.39
60061;BME280;45933;51.336;12.612;2023-01-16T08:39:57;97851.13;;;7.64;48.48
60061;BME280;45933;51.336;12.612;2023-01-16T08:42:23;97849.44;;;7.92;49.03
60061;BME280;45933;51.336;12.612;2023-01-16T08:45:09;97856.59;;;7.84;48.01
60061;BME280;45933;51.336;12.612;2023-01-16T08:47:53;97841.00;;;7.56;48.62
60061;BME280;45933;51.336;12.612;2023-01-16T08:50:37;97832.56;;;7.49;48.61
60061;BME280;45933;51.336;12.612;2023-01-16T08:53:21;97820.47;;;7.48;49.14
60061;BME280;45933;51.336;12.612;2023-01-16T08:55:46;97824.09;;;7.13;49.06
60061;BME280;45933;51.336;12.612;2023-01-16T08:58:11;97811.25;;;7.40;49.84
60061;BME280;45933;51.336;12.612;2023-01-16T09:00:37;97798.69;;;7.55;50.51
60061;BME280;45933;51.336;12.612;2023-01-16T09:03:02;97790.38;;;7.72;49.92
60061;BME280;45933;51.336;12.612;2023-01-16T09:05:28;97796.47;;;7.71;48.36
60061;BME280;45933;51.336;12.612;2023-01-16T09:07:53;97784.88;;;8.09;49.11
60061;BME280;45933;51.336;12.612;2023-01-16T09:10:19;97782.09;;;8.16;47.56
60061;BME280;45933;51.336;12.612;2023-01-16T09:12:44;97778.91;;;8.60;47.86
60061;BME280;45933;51.336;12.612;2023-01-16T09:15:28;97771.06;;;8.87;47.86
60061;BME280;45933;51.336;12.612;2023-01-16T09:17:53;97776.97;;;8.90;45.99
60061;BME280;45933;51.336;12.612;2023-01-16T09:20:19;97783.94;;;9.13;46.13
60061;BME280;45933;51.336;12.612;2023-01-16T09:22:44;97770.41;;;9.29;46.00
60061;BME280;45933;51.336;12.612;2023-01-16T09:25:10;97763.91;;;9.84;46.09
60061;BME280;45933;51.336;12.612;2023-01-16T09:27:36;97757.63;;;10.34;46.92
60061;BME280;45933;51.336;12.612;2023-01-16T09:30:01;97750.13;;;10.67;45.24
60061;BME280;45933;51.336;12.612;2023-01-16T09:32:26;97754.91;;;10.96;43.61
60061;BME280;45933;51.336;12.612;2023-01-16T09:34:52;97736.00;;;11.31;42.89
60061;BME280;45933;51.336;12.612;2023-01-16T09:37:17;97747.47;;;11.26;42.52
60061;BME280;45933;51.336;12.612;2023-01-16T09:39:43;97736.19;;;11.83;40.96
60061;BME280;45933;51.336;12.612;2023-01-16T09:42:36;97729.94;;;12.39;41.01
60061;BME280;45933;51.336;12.612;2023-01-16T09:45:23;97727.63;;;12.67;40.48
60061;BME280;45933;51.336;12.612;2023-01-16T09:47:52;97719.41;;;13.08;40.97
60061;BME280;45933;51.336;12.612;2023-01-16T09:50:28;97715.63;;;12.96;37.49
60061;BME280;45933;51.336;12.612;2023-01-16T09:52:54;97699.09;;;12.96;37.08
60061;BME280;45933;51.336;12.612;2023-01-16T09:55:51;97697.03;;;13.02;37.34
60061;BME280;45933;51.336;12.612;2023-01-16T09:59:19;97684.16;;;13.47;35.95
60061;BME280;45933;51.336;12.612;2023-01-16T10:01:45;97683.91;;;13.67;37.13
60061;BME280;45933;51.336;12.612;2023-01-16T10:04:20;97679.56;;;13.98;36.60
60061;BME280;45933;51.336;12.612;2023-01-16T10:12:11;97658.19;;;13.90;33.71
60061;BME280;45933;51.336;12.612;2023-01-16T10:15:03;97653.78;;;14.20;35.48
60061;BME280;45933;51.336;12.612;2023-01-16T10:17:55;97654.59;;;14.06;33.65
60061;BME280;45933;51.336;12.612;2023-01-16T10:20:47;97645.44;;;13.83;33.48
60061;BME280;45933;51.336;12.612;2023-01-16T10:23:39;97629.81;;;14.12;33.45
60061;BME280;45933;51.336;12.612;2023-01-16T10:26:17;97647.34;;;13.96;33.63
60061;BME280;45933;51.336;12.612;2023-01-16T10:31:26;97637.63;;;14.42;34.10
60061;BME280;45933;51.336;12.612;2023-01-16T10:34:21;97628.13;;;14.70;33.23
60061;BME280;45933;51.336;12.612;2023-01-16T10:36:52;97622.69;;;14.58;33.96
60061;BME280;45933;51.336;12.612;2023-01-16T10:39:20;97608.47;;;14.77;33.23
60061;BME280;45933;51.336;12.612;2023-01-16T10:41:48;97608.22;;;14.23;32.59
60061;BME280;45933;51.336;12.612;2023-01-16T10:44:40;97596.16;;;14.91;33.93
60061;BME280;45933;51.336;12.612;2023-01-16T10:47:29;97587.28;;;14.65;32.86
60061;BME280;45933;51.336;12.612;2023-01-16T10:50:15;97577.50;;;15.10;33.38
60061;BME280;45933;51.336;12.612;2023-01-16T10:52:41;97574.00;;;14.69;32.74
60061;BME280;45933;51.336;12.612;2023-01-16T10:55:08;97568.19;;;15.19;32.47
60061;BME280;45933;51.336;12.612;2023-01-16T10:57:35;97564.47;;;15.09;32.04
60061;BME280;45933;51.336;12.612;2023-01-16T11:00:10;97579.97;;;15.26;31.47
60061;BME280;45933;51.336;12.612;2023-01-16T11:02:44;97553.81;;;15.52;32.69
60061;BME280;45933;51.336;12.612;2023-01-16T11:05:34;97545.34;;;15.61;32.79
60061;BME280;45933;51.336;12.612;2023-01-16T11:08:10;97534.28;;;15.83;31.83
60061;BME280;45933;51.336;12.612;2023-01-16T11:10:38;97527.56;;;16.04;32.71
60061;BME280;45933;51.336;12.612;2023-01-16T11:13:04;97524.34;;;15.61;31.58
60061;BME280;45933;51.336;12.612;2023-01-16T11:18:49;97508.78;;;15.58;31.46
60061;BME280;45933;51.336;12.612;2023-01-16T11:21:42;97505.69;;;15.91;30.61
60061;BME280;45933;51.336;12.612;2023-01-16T11:24:21;97507.84;;;15.59;31.94
60061;BME280;45933;51.336;12.612;2023-01-16T11:26:54;97500.91;;;15.58;31.05
60061;BME280;45933;51.336;12.612;2023-01-16T11:29:22;97498.50;;;15.28;30.60
60061;BME280;45933;51.336;12.612;2023-01-16T11:31:52;97495.47;;;15.61;31.19
60061;BME280;45933;51.336;12.612;2023-01-16T11:34:21;97486.78;;;15.33;30.91
60061;BME280;45933;51.336;12.612;2023-01-16T11:36:52;97474.84;;;15.42;31.03
60061;BME280;45933;51.336;12.612;2023-01-16T11:39:21;97472.75;;;15.60;30.48
60061;BME280;45933;51.336;12.612;2023-01-16T11:41:51;97465.44;;;15.65;31.24
60061;BME280;45933;51.336;12.612;2023-01-16T11:44:21;97458.00;;;15.84;30.77
60061;BME280;45933;51.336;12.612;2023-01-16T11:47:05;97447.06;;;15.90;30.91
60061;BME280;45933;51.336;12.612;2023-01-16T11:49:40;97436.97;;;15.97;31.96
60061;BME280;45933;51.336;12.612;2023-01-16T11:52:12;97425.72;;;15.69;29.52
60061;BME280;45933;51.336;12.612;2023-01-16T11:54:37;97433.47;;;15.46;30.72
60061;BME280;45933;51.336;12.612;2023-01-16T11:58:04;97419.28;;;15.48;30.32
60061;BME280;45933;51.336;12.612;2023-01-16T12:05:52;97400.59;;;15.40;29.94
60061;BME280;45933;51.336;12.612;2023-01-16T12:11:12;97378.56;;;15.81;30.82
60061;BME280;45933;51.336;12.612;2023-01-16T12:17:05;97356.81;;;15.40;30.78
60061;BME280;45933;51.336;12.612;2023-01-16T12:25:32;97336.25;;;15.34;31.48
60061;BME280;45933;51.336;12.612;2023-01-16T12:28:17;97328.88;;;15.27;30.77
60061;BME280;45933;51.336;12.612;2023-01-16T12:31:00;97322.06;;;15.24;30.65
60061;BME280;45933;51.336;12.612;2023-01-16T12:36:59;97300.22;;;15.24;31.57
60061;BME280;45933;51.336;12.612;2023-01-16T12:39:42;97297.09;;;15.19;31.22
60061;BME280;45933;51.336;12.612;2023-01-16T12:45:27;97278.31;;;15.25;30.73
60061;BME280;45933;51.336;12.612;2023-01-16T12:48:21;97267.25;;;15.07;30.49
60061;BME280;45933;51.336;12.612;2023-01-16T12:51:00;97264.44;;;15.10;30.35
60061;BME280;45933;51.336;12.612;2023-01-16T12:54:20;97251.75;;;14.78;30.59
60061;BME280;45933;51.336;12.612;2023-01-16T12:59:59;97238.91;;;13.67;31.53
60061;BME280;45933;51.336;12.612;2023-01-16T13:05:23;97229.84;;;13.58;32.05
60061;BME280;45933;51.336;12.612;2023-01-16T13:10:40;97214.44;;;13.11;33.25
60061;BME280;45933;51.336;12.612;2023-01-16T13:13:27;97215.97;;;12.87;33.33
60061;BME280;45933;51.336;12.612;2023-01-16T13:16:08;97216.00;;;12.56;34.18
60061;BME280;45933;51.336;12.612;2023-01-16T13:18:45;97201.75;;;12.32;34.60
60061;BME280;45933;51.336;12.612;2023-01-16T13:21:16;97193.63;;;12.22;34.38
60061;BME280;45933;51.336;12.612;2023-01-16T13:24:10;97195.97;;;12.27;34.80
60061;BME280;45933;51.336;12.612;2023-01-16T13:26:38;97192.25;;;12.01;34.77
60061;BME280;45933;51.336;12.612;2023-01-16T13:29:13;97178.81;;;11.93;34.79
60061;BME280;45933;51.336;12.612;2023-01-16T13:31:45;97174.53;;;11.76;35.46
60061;BME280;45933;51.336;12.612;2023-01-16T13:34:34;97170.28;;;11.73;35.46
60061;BME280;45933;51.336;12.612;2023-01-16T13:37:20;97160.03;;;11.55;36.13
60061;BME280;45933;51.336;12.612;2023-01-16T13:39:59;97150.41;;;11.41;36.20
60061;BME280;45933;51.336;12.612;2023-01-16T13:42:30;97136.09;;;11.16;37.46
60061;BME280;45933;51.336;12.612;2023-01-16T13:45:05;97134.53;;;10.81;37.81
60061;BME280;45933;51.336;12.612;2023-01-16T13:47:50;97136.16;;;10.83;37.35
60061;BME280;45933;51.336;12.612;2023-01-16T13:50:26;97129.50;;;10.78;37.85
60061;BME280;45933;51.336;12.612;2023-01-16T13:53:03;97121.84;;;10.74;37.38
60061;BME280;45933;51.336;12.612;2023-01-16T13:55:38;97114.09;;;10.57;37.59
60061;BME280;45933;51.336;12.612;2023-01-16T13:58:14;97115.94;;;10.55;38.03
60061;BME280;45933;51.336;12.612;2023-01-16T14:00:41;97104.34;;;10.45;37.97
60061;BME280;45933;51.336;12.612;2023-01-16T14:03:18;97101.88;;;10.42;38.46
60061;BME280;45933;51.336;12.612;2023-01-16T14:05:47;97096.91;;;10.37;38.72
60061;BME280;45933;51.336;12.612;2023-01-16T14:11:16;97091.41;;;10.26;38.62
60061;BME280;45933;51.336;12.612;2023-01-16T14:13:47;97095.16;;;10.20;38.79
60061;BME280;45933;51.336;12.612;2023-01-16T14:24:03;97083.16;;;10.01;38.49
60061;BME280;45933;51.336;12.612;2023-01-16T14:29:24;97074.13;;;9.90;37.96
60061;BME280;45933;51.336;12.612;2023-01-16T14:32:04;97070.78;;;9.88;38.66
60061;BME280;45933;51.336;12.612;2023-01-16T14:34:37;97071.09;;;9.82;38.57
60061;BME280;45933;51.336;12.612;2023-01-16T14:37:21;97066.53;;;9.86;38.41
60061;BME280;45933;51.336;12.612;2023-01-16T14:39:58;97063.50;;;9.78;38.61